Terminal Aerodrome Forecast
Issued by NWS Charleston, WV

Current Version | Previous Version | Text Only | Print | Product List | Glossary Off
Versions: 1 2 3 4 5 6 7 8 9 10 11 12 13 14 15 16 17 18 19 20 21 22 23 24 25

000
FTUS41 KRLX 220011 CCA
TAFEKN
TAF COR
KEKN 220011Z 2200/2224 33006KT 6SM -RA BR BKN012
     FM220300 31004KT 3SM -DZ BR BKN015
     FM220600 29004KT 2SM BR BKN020
     FM220800 29004KT 1SM BR SCT001 SCT020
     FM221200 28008KT 3SM BR FEW025
     FM221300 28012G20KT P6SM SCT035
     FM221800 27012G20KT P6SM BKN040=

USA.gov is the U.S. government's official web portal to all federal, state and local government web resources and services.